Time;durP1;ratioP1;P1;durP2;ratioP2;P2;SDS_P1;SDS_P2;PMS_P1;PMS_P2;Temp;Humidity;BMP_temperature;BMP_pressure;BME280_temperature;BME280_humidity;BME280_pressure;Samples;Min_cycle;Max_cycle;Signal;HPM_P1;HPM_P2
2023/01/31 00:01:34;;;;;;;15.60;7.30;;;;;;;2.63;89.11;98710.81;5024137;28;20103;-83
2023/01/31 00:04:05;;;;;;;14.02;7.57;;;;;;;2.62;89.17;98709.19;5024551;28;20083;-83
2023/01/31 00:06:35;;;;;;;12.95;6.28;;;;;;;2.63;89.23;98704.81;5024269;28;20116;-83
2023/01/31 00:09:03;;;;;;;16.65;8.07;;;;;;;2.62;89.27;98710.97;5024013;28;20037;-83
2023/01/31 00:11:30;;;;;;;10.88;7.25;;;;;;;2.56;89.70;98703.72;5022858;28;20043;-82
2023/01/31 00:13:59;;;;;;;9.60;6.10;;;;;;;2.49;89.66;98702.63;5024671;28;20674;-83
2023/01/31 00:16:26;;;;;;;13.95;5.65;;;;;;;2.52;89.78;98692.84;5020864;28;20033;-82
2023/01/31 00:18:51;;;;;;;13.48;6.97;;;;;;;2.51;89.69;98711.06;5019944;28;20045;-83
2023/01/31 00:21:24;;;;;;;12.02;6.57;;;;;;;2.50;90.04;98704.25;5024837;28;20041;-82
2023/01/31 00:23:51;;;;;;;7.90;5.40;;;;;;;2.47;89.92;98715.72;5024519;28;20040;-82
2023/01/31 00:26:29;;;;;;;10.27;5.88;;;;;;;2.46;89.79;98710.66;5017934;28;20041;-82
2023/01/31 00:28:58;;;;;;;14.48;6.85;;;;;;;2.40;90.04;98712.84;5018208;28;20036;-82
2023/01/31 00:31:26;;;;;;;15.35;6.47;;;;;;;2.41;90.07;98721.44;5018090;28;20068;-82
2023/01/31 00:33:54;;;;;;;12.13;6.57;;;;;;;2.38;90.35;98725.09;5005801;28;20083;-82
2023/01/31 00:36:24;;;;;;;9.25;5.15;;;;;;;2.41;90.26;98732.59;5021471;28;20473;-82
2023/01/31 00:38:53;;;;;;;12.95;7.30;;;;;;;2.34;90.56;98723.72;5022426;28;20032;-82
2023/01/31 00:41:20;;;;;;;13.02;6.47;;;;;;;2.32;90.69;98740.31;5022040;28;20033;-83
2023/01/31 00:43:46;;;;;;;13.00;6.35;;;;;;;2.38;90.58;98730.25;5023719;28;20041;-83
2023/01/31 00:46:12;;;;;;;16.98;7.78;;;;;;;2.33;90.63;98729.84;5009262;28;20044;-82
2023/01/31 00:48:37;;;;;;;12.32;7.05;;;;;;;2.32;90.54;98735.16;5025747;28;20378;-83
2023/01/31 00:51:03;;;;;;;17.30;7.80;;;;;;;2.34;90.67;98734.09;5022556;28;20513;-82
2023/01/31 00:53:28;;;;;;;12.88;5.70;;;;;;;2.34;90.78;98735.81;5026125;28;20041;-82
2023/01/31 00:56:04;;;;;;;15.30;7.10;;;;;;;2.31;90.69;98730.94;5025008;28;20532;-82
2023/01/31 00:58:29;;;;;;;11.35;6.13;;;;;;;2.28;90.98;98728.59;5024598;28;20042;-82
2023/01/31 01:00:55;;;;;;;11.43;6.22;;;;;;;2.29;90.85;98743.19;5022621;28;20064;-82
2023/01/31 01:03:20;;;;;;;11.10;6.30;;;;;;;2.29;91.17;98746.59;4996588;28;20041;-83
2023/01/31 01:05:45;;;;;;;11.25;5.60;;;;;;;2.31;90.76;98741.28;4999350;28;20104;-83
2023/01/31 01:08:11;;;;;;;13.48;6.70;;;;;;;2.25;91.01;98734.84;5023855;28;20449;-83
2023/01/31 01:10:36;;;;;;;14.85;9.23;;;;;;;2.26;91.01;98741.66;5021984;28;20370;-82
2023/01/31 01:13:04;;;;;;;14.75;5.95;;;;;;;2.25;90.99;98742.63;4987931;28;20041;-83
2023/01/31 01:15:30;;;;;;;14.07;6.88;;;;;;;2.21;91.06;98735.25;5018987;28;20037;-82
2023/01/31 01:17:57;;;;;;;18.13;8.90;;;;;;;2.24;91.08;98735.00;5023275;28;20049;-83
2023/01/31 01:20:23;;;;;;;11.02;5.90;;;;;;;2.29;91.21;98733.66;5020707;28;20171;-82
2023/01/31 01:22:48;;;;;;;13.80;6.30;;;;;;;2.23;91.22;98718.66;5022015;28;20041;-82
2023/01/31 01:25:14;;;;;;;9.75;4.72;;;;;;;2.29;91.09;98738.00;5006826;28;20037;-82
2023/01/31 01:27:39;;;;;;;16.70;7.70;;;;;;;2.24;90.89;98740.16;5024183;28;20040;-83
2023/01/31 01:30:06;;;;;;;9.05;6.90;;;;;;;2.23;91.32;98749.72;5022142;28;20552;-82
2023/01/31 01:32:32;;;;;;;12.55;6.03;;;;;;;2.27;90.98;98745.88;4989035;28;20073;-83
2023/01/31 01:34:57;;;;;;;15.35;7.20;;;;;;;2.21;91.27;98756.75;5022872;28;20378;-82
2023/01/31 01:37:23;;;;;;;9.07;5.40;;;;;;;2.20;90.90;98751.72;5018394;28;20040;-82
2023/01/31 01:39:50;;;;;;;10.63;5.45;;;;;;;2.19;91.07;98745.72;5023160;28;20109;-83
2023/01/31 01:42:20;;;;;;;13.68;5.55;;;;;;;2.17;91.41;98752.00;5022985;28;20034;-82
2023/01/31 01:44:59;;;;;;;10.63;6.15;;;;;;;2.11;91.40;98745.56;5000423;28;20056;-82
2023/01/31 01:47:51;;;;;;;12.40;5.85;;;;;;;2.08;91.72;98751.00;5022291;28;20120;-82
2023/01/31 01:50:35;;;;;;;11.77;5.30;;;;;;;2.07;91.76;98754.53;5012563;28;20416;-82
2023/01/31 01:53:07;;;;;;;9.88;5.28;;;;;;;2.08;92.19;98751.00;5024338;28;20120;-82
2023/01/31 01:55:40;;;;;;;14.35;6.28;;;;;;;2.07;92.10;98750.19;5022887;28;20035;-82
2023/01/31 01:58:37;;;;;;;11.55;5.78;;;;;;;2.04;92.06;98759.97;5021807;28;20531;-82
2023/01/31 02:01:07;;;;;;;14.73;5.57;;;;;;;2.06;92.24;98763.25;4981808;28;20045;-82
2023/01/31 02:03:34;;;;;;;9.25;5.50;;;;;;;2.06;92.04;98768.44;5021722;28;20678;-82
2023/01/31 02:06:05;;;;;;;7.47;4.20;;;;;;;2.09;92.21;98765.56;5021162;28;20073;-82
2023/01/31 02:08:34;;;;;;;11.30;4.57;;;;;;;2.07;92.28;98770.06;5019937;28;20047;-82
2023/01/31 02:11:19;;;;;;;14.07;6.07;;;;;;;2.08;92.06;98776.88;5021702;28;20040;-82
2023/01/31 02:13:46;;;;;;;11.98;5.88;;;;;;;2.07;92.34;98770.06;5018539;28;20127;-82
2023/01/31 02:16:12;;;;;;;14.88;6.68;;;;;;;2.03;92.26;98773.84;5017942;28;20044;-82
2023/01/31 02:18:38;;;;;;;11.27;5.07;;;;;;;1.99;92.37;98757.78;5023094;28;20045;-82
2023/01/31 02:21:44;;;;;;;10.13;5.55;;;;;;;2.05;92.46;98774.56;5024283;28;20045;-82
2023/01/31 02:24:40;;;;;;;12.55;5.35;;;;;;;2.00;92.52;98774.13;5020609;28;20034;-82
2023/01/31 02:27:47;;;;;;;8.70;5.72;;;;;;;1.95;93.04;98771.09;5024141;28;20108;-82
2023/01/31 02:30:42;;;;;;;10.90;4.60;;;;;;;1.91;93.26;98775.69;5008483;28;20096;-83
2023/01/31 02:33:36;;;;;;;11.23;5.72;;;;;;;1.93;93.09;98781.56;5015600;28;20608;-82
2023/01/31 02:36:37;;;;;;;11.85;5.35;;;;;;;2.00;93.03;98774.13;5007900;28;20040;-82
2023/01/31 02:39:22;;;;;;;9.63;5.10;;;;;;;2.01;93.18;98781.75;4998325;28;20107;-82
2023/01/31 02:42:00;;;;;;;14.77;6.40;;;;;;;1.92;93.07;98786.84;4995397;28;20045;-82
2023/01/31 02:45:00;;;;;;;13.05;6.40;;;;;;;1.93;93.43;98793.69;5026309;28;20041;-82
2023/01/31 02:47:44;;;;;;;15.48;6.93;;;;;;;1.90;93.28;98799.09;5022805;28;20071;-82
2023/01/31 02:50:23;;;;;;;12.85;6.38;;;;;;;1.92;93.56;98807.56;5026531;28;20409;-82
2023/01/31 02:53:13;;;;;;;15.57;6.70;;;;;;;1.91;93.64;98805.91;5005853;28;20053;-82
2023/01/31 02:58:43;;;;;;;13.30;5.65;;;;;;;1.88;93.72;98813.00;5024491;28;20092;-82
2023/01/31 03:01:16;;;;;;;15.07;6.18;;;;;;;1.87;93.64;98795.84;5023900;28;20044;-82
2023/01/31 03:03:42;;;;;;;13.02;5.88;;;;;;;1.97;93.73;98805.41;5009792;28;20041;-82
2023/01/31 03:06:34;;;;;;;11.82;6.53;;;;;;;1.97;93.57;98808.00;5005855;28;20088;-83
2023/01/31 03:09:08;;;;;;;12.95;5.97;;;;;;;2.02;93.51;98809.25;5023378;28;20034;-82
2023/01/31 03:11:52;;;;;;;14.02;6.35;;;;;;;2.02;93.43;98800.69;5021154;28;20120;-82
2023/01/31 03:15:04;;;;;;;13.98;6.25;;;;;;;2.04;93.30;98809.13;5024467;28;20108;-82
2023/01/31 03:18:04;;;;;;;13.75;6.10;;;;;;;2.01;93.26;98823.16;5025132;28;20113;-82
2023/01/31 03:20:43;;;;;;;17.00;7.53;;;;;;;1.98;92.82;98822.56;5022285;28;20405;-83
2023/01/31 03:23:22;;;;;;;12.25;4.82;;;;;;;2.01;92.91;98837.84;5007997;28;20116;-82
2023/01/31 03:25:49;;;;;;;8.38;5.22;;;;;;;2.08;92.94;98839.78;5025477;28;20436;-82
2023/01/31 03:28:24;;;;;;;15.05;5.90;;;;;;;2.12;92.32;98836.00;5024019;28;20030;-82
2023/01/31 03:31:20;;;;;;;10.15;4.85;;;;;;;2.15;92.24;98840.91;5027027;28;20081;-82
2023/01/31 03:33:57;;;;;;;10.75;4.70;;;;;;;2.17;91.94;98848.56;5021723;28;20025;-82
2023/01/31 03:36:50;;;;;;;13.77;4.95;;;;;;;2.17;91.50;98847.75;5006058;28;20041;-82
2023/01/31 03:39:46;;;;;;;10.40;5.80;;;;;;;2.13;91.72;98842.81;5023296;28;20132;-82
2023/01/31 03:42:24;;;;;;;13.50;6.47;;;;;;;2.11;91.75;98852.50;5024682;28;20096;-82
2023/01/31 03:45:05;;;;;;;11.38;5.65;;;;;;;1.93;92.13;98829.91;5023553;28;20044;-82
2023/01/31 03:47:49;;;;;;;10.80;5.15;;;;;;;2.13;91.96;98854.94;5024706;28;20504;-82
2023/01/31 03:50:34;;;;;;;11.38;6.22;;;;;;;2.12;92.07;98851.53;5023266;28;20374;-82
2023/01/31 03:53:47;;;;;;;13.75;7.60;;;;;;;2.05;92.10;98865.13;5023377;28;20116;-83
2023/01/31 03:56:52;;;;;;;12.38;6.03;;;;;;;2.04;92.39;98864.31;5017661;28;20052;-82
2023/01/31 03:59:31;;;;;;;11.95;5.07;;;;;;;2.03;92.24;98857.47;5018381;28;20116;-82
2023/01/31 04:02:00;;;;;;;11.10;6.55;;;;;;;2.02;92.60;98880.88;5021145;28;20087;-82
2023/01/31 04:04:53;;;;;;;12.57;5.60;;;;;;;2.02;92.57;98884.28;5024274;28;20059;-82
2023/01/31 04:07:19;;;;;;;11.95;5.18;;;;;;;2.03;92.52;98877.34;5017815;28;20036;-82
2023/01/31 04:09:47;;;;;;;15.65;6.85;;;;;;;1.99;92.60;98870.81;5023331;28;20347;-83
2023/01/31 04:12:14;;;;;;;14.40;6.30;;;;;;;2.05;92.70;98885.81;4988167;28;20045;-82
2023/01/31 04:14:41;;;;;;;10.60;6.22;;;;;;;2.08;92.32;98886.38;5021765;28;20116;-82
2023/01/31 04:17:06;;;;;;;17.55;7.10;;;;;;;2.09;92.11;98889.78;5019289;28;20059;-82
2023/01/31 04:19:32;;;;;;;13.27;6.43;;;;;;;2.12;92.20;98885.19;5022860;28;20049;-83
2023/01/31 04:21:57;;;;;;;11.88;5.40;;;;;;;2.12;92.05;98882.59;5023161;28;20065;-82
2023/01/31 04:24:23;;;;;;;15.80;6.13;;;;;;;2.19;91.74;98884.66;5019263;28;20046;-83
2023/01/31 04:26:48;;;;;;;11.38;5.40;;;;;;;2.20;91.90;98886.31;5023460;28;20037;-83
2023/01/31 04:29:14;;;;;;;10.82;5.57;;;;;;;2.20;91.46;98894.91;5019411;28;20033;-83
2023/01/31 04:31:40;;;;;;;11.48;6.47;;;;;;;2.16;91.71;98893.53;5018724;28;20412;-82
2023/01/31 04:34:06;;;;;;;15.38;6.45;;;;;;;2.21;91.36;98890.53;5023663;28;20041;-83
2023/01/31 04:36:32;;;;;;;13.27;5.65;;;;;;;2.23;91.49;98892.06;5025106;28;20477;-82
2023/01/31 04:38:59;;;;;;;13.32;5.65;;;;;;;2.25;91.37;98892.75;5022592;28;20045;-83
2023/01/31 04:41:26;;;;;;;11.60;6.45;;;;;;;2.25;91.21;98892.75;5021829;28;20386;-82
2023/01/31 04:43:51;;;;;;;11.75;6.13;;;;;;;2.17;91.62;98895.16;5022980;28;20037;-83
2023/01/31 04:46:18;;;;;;;13.63;5.95;;;;;;;2.16;91.75;98883.16;5025112;28;20041;-83
2023/01/31 04:48:43;;;;;;;13.43;5.10;;;;;;;2.16;91.67;98893.53;5022779;28;20033;-82
2023/01/31 04:51:09;;;;;;;10.45;5.10;;;;;;;2.17;91.73;98887.41;5023541;28;20560;-83
2023/01/31 04:53:34;;;;;;;10.18;5.93;;;;;;;2.15;92.01;98879.72;5023850;28;20151;-82
2023/01/31 04:56:00;;;;;;;9.57;4.97;;;;;;;2.13;92.25;98879.06;5021127;28;20492;-83
2023/01/31 04:58:25;;;;;;;10.45;5.30;;;;;;;2.11;92.16;98882.72;5021389;28;20034;-82
2023/01/31 05:00:53;;;;;;;10.95;4.97;;;;;;;2.06;92.35;98877.09;5020328;28;20064;-83
2023/01/31 05:03:19;;;;;;;11.90;5.80;;;;;;;2.12;92.20;98874.84;5025328;28;20044;-83
2023/01/31 05:05:48;;;;;;;12.25;5.70;;;;;;;2.16;92.38;98875.41;5019987;28;20041;-82
2023/01/31 05:08:14;;;;;;;12.85;6.13;;;;;;;2.13;92.06;98867.88;5023617;28;20112;-83
2023/01/31 05:10:39;;;;;;;16.52;8.07;;;;;;;2.17;91.98;98877.03;5021533;28;20120;-82
2023/01/31 05:13:06;;;;;;;16.88;6.07;;;;;;;2.21;91.90;98875.00;5021674;28;20029;-82
2023/01/31 05:15:31;;;;;;;9.93;5.85;;;;;;;2.22;91.85;98872.31;5019104;28;20032;-83
2023/01/31 05:18:01;;;;;;;11.23;6.07;;;;;;;2.27;91.41;98872.72;5022635;28;20045;-83
2023/01/31 05:20:38;;;;;;;11.25;5.55;;;;;;;2.27;91.51;98864.97;5018792;28;20045;-83
2023/01/31 05:23:04;;;;;;;12.52;6.57;;;;;;;2.33;91.18;98868.81;5021628;28;20071;-82
2023/01/31 05:25:30;;;;;;;12.90;6.88;;;;;;;2.36;90.80;98866.78;5003727;28;20065;-83
2023/01/31 05:27:56;;;;;;;9.30;5.53;;;;;;;2.35;90.47;98862.56;5021986;28;20033;-82
2023/01/31 05:30:25;;;;;;;13.45;5.55;;;;;;;2.35;90.50;98866.94;5005105;28;20041;-82
2023/01/31 05:32:50;;;;;;;12.73;5.15;;;;;;;2.40;90.18;98857.00;5023419;28;20045;-83
2023/01/31 05:35:17;;;;;;;14.70;5.38;;;;;;;2.41;90.04;98862.06;5024889;28;20444;-83
2023/01/31 05:37:43;;;;;;;8.73;4.10;;;;;;;2.45;90.38;98851.41;5023672;28;20060;-83
2023/01/31 05:40:15;;;;;;;14.65;5.80;;;;;;;2.46;90.19;98853.06;5022880;28;20029;-83
2023/01/31 05:42:41;;;;;;;10.88;5.18;;;;;;;2.42;90.11;98852.50;5004805;28;20038;-83
2023/01/31 05:45:09;;;;;;;10.20;5.07;;;;;;;2.42;90.13;98873.22;5019267;28;20464;-83
2023/01/31 05:47:35;;;;;;;18.73;7.43;;;;;;;2.37;90.15;98863.25;5018706;28;20069;-83
2023/01/31 05:50:00;;;;;;;10.15;5.93;;;;;;;2.39;90.00;98883.81;5022530;28;20061;-83
2023/01/31 05:52:26;;;;;;;18.17;6.20;;;;;;;2.43;89.99;98887.81;5024018;28;20080;-83
2023/01/31 05:54:52;;;;;;;7.93;5.30;;;;;;;2.42;89.79;98881.81;5025457;28;20041;-83
2023/01/31 05:57:17;;;;;;;10.82;4.82;;;;;;;2.40;90.10;98890.66;5028687;28;20556;-82
2023/01/31 05:59:43;;;;;;;21.77;7.30;;;;;;;2.39;90.20;98891.59;5026031;28;20121;-83
2023/01/31 06:02:10;;;;;;;14.20;5.85;;;;;;;2.40;89.92;98885.50;5025962;28;20061;-83
2023/01/31 06:04:36;;;;;;;11.35;5.97;;;;;;;2.39;90.30;98884.63;5023637;28;20049;-83
2023/01/31 06:07:03;;;;;;;13.77;6.50;;;;;;;2.28;90.30;98876.97;5024089;28;20038;-82
2023/01/31 06:09:29;;;;;;;9.25;4.25;;;;;;;2.30;90.46;98888.00;5024477;28;20382;-83
2023/01/31 06:11:54;;;;;;;15.38;6.45;;;;;;;2.30;90.17;98885.41;5022905;28;20041;-83
2023/01/31 06:14:20;;;;;;;14.65;5.60;;;;;;;2.32;90.48;98880.94;5025886;28;20033;-83
2023/01/31 06:16:45;;;;;;;15.40;5.93;;;;;;;2.25;90.24;98877.22;5019915;28;20493;-82
2023/01/31 06:19:11;;;;;;;15.02;6.05;;;;;;;2.33;90.21;98886.91;5025838;28;20070;-83
2023/01/31 06:21:36;;;;;;;12.05;5.32;;;;;;;2.34;90.21;98881.63;5024905;28;20038;-83
2023/01/31 06:24:02;;;;;;;10.13;4.70;;;;;;;2.36;89.92;98895.28;5025935;28;20068;-82
2023/01/31 06:26:28;;;;;;;7.30;3.92;;;;;;;2.39;89.87;98895.00;5025479;28;20048;-83
2023/01/31 06:28:56;;;;;;;13.35;5.95;;;;;;;2.36;89.74;98889.28;5028517;28;20033;-83
2023/01/31 06:31:22;;;;;;;12.85;5.00;;;;;;;2.41;89.86;98890.53;5026857;28;20045;-82
2023/01/31 06:33:47;;;;;;;13.30;5.78;;;;;;;2.40;89.68;98899.25;5026041;28;20065;-82
2023/01/31 06:36:13;;;;;;;17.15;6.47;;;;;;;2.38;89.75;98890.78;5024573;28;20034;-83
2023/01/31 06:38:38;;;;;;;12.02;5.18;;;;;;;2.32;90.02;98898.22;5026010;28;20029;-82
2023/01/31 06:41:04;;;;;;;18.20;6.30;;;;;;;2.27;90.03;98898.59;5022727;28;20495;-82
2023/01/31 06:43:29;;;;;;;14.65;5.63;;;;;;;2.25;90.26;98900.50;5023446;28;20449;-82
2023/01/31 06:45:55;;;;;;;13.70;6.10;;;;;;;2.18;90.39;98908.91;5025299;28;20135;-83
2023/01/31 06:48:20;;;;;;;17.60;6.30;;;;;;;2.13;90.64;98893.75;5024326;28;20377;-82
2023/01/31 06:50:46;;;;;;;13.90;6.13;;;;;;;2.15;90.75;98899.63;5021931;28;20122;-83
2023/01/31 06:53:11;;;;;;;13.55;5.45;;;;;;;2.14;90.48;98900.56;5026051;28;20029;-83
2023/01/31 06:55:38;;;;;;;8.43;4.28;;;;;;;2.20;90.45;98905.25;5024100;28;20045;-82
2023/01/31 06:58:03;;;;;;;11.95;4.40;;;;;;;2.24;90.34;98911.00;5025366;28;20034;-82
2023/01/31 07:00:29;;;;;;;12.40;5.53;;;;;;;2.17;90.25;98902.09;5023388;28;20091;-82
2023/01/31 07:02:55;;;;;;;14.32;5.63;;;;;;;2.19;90.43;98903.59;5021083;28;20045;-83
2023/01/31 07:05:21;;;;;;;12.13;4.70;;;;;;;2.19;90.35;98903.59;5025556;28;20034;-83
2023/01/31 07:07:48;;;;;;;18.05;5.80;;;;;;;2.18;90.13;98906.34;5002322;28;20042;-82
2023/01/31 07:10:15;;;;;;;12.07;5.32;;;;;;;2.28;89.95;98897.69;5002257;28;20022;-82
2023/01/31 07:12:41;;;;;;;19.48;5.72;;;;;;;2.39;89.70;98905.34;5017116;28;20059;-82
2023/01/31 07:15:09;;;;;;;11.57;4.75;;;;;;;2.38;89.09;98910.66;5021157;28;20033;-82
2023/01/31 07:17:35;;;;;;;14.10;5.57;;;;;;;2.35;89.39;98911.75;5004407;28;20044;-82
2023/01/31 07:20:01;;;;;;;16.35;4.65;;;;;;;2.37;89.07;98906.44;5024238;28;20037;-82
2023/01/31 07:22:26;;;;;;;13.48;4.90;;;;;;;2.34;88.97;98907.53;5017765;28;20398;-83
2023/01/31 07:24:51;;;;;;;12.02;5.55;;;;;;;2.37;88.68;98912.44;5000908;28;20040;-82
2023/01/31 07:27:17;;;;;;;10.05;4.53;;;;;;;2.30;88.53;98893.19;5023468;28;20112;-83
2023/01/31 07:29:42;;;;;;;11.05;4.82;;;;;;;2.38;88.40;98900.31;5024207;28;20038;-83
2023/01/31 07:32:09;;;;;;;21.02;5.80;;;;;;;2.40;88.30;98907.03;5018622;28;20107;-83
2023/01/31 07:34:36;;;;;;;13.50;5.78;;;;;;;2.37;88.39;98915.03;5008351;28;20038;-83
2023/01/31 07:37:01;;;;;;;13.30;5.03;;;;;;;2.48;88.21;98910.72;5027000;28;20033;-83
2023/01/31 07:39:28;;;;;;;14.18;5.68;;;;;;;2.44;88.02;98906.75;5019351;28;20116;-83
2023/01/31 07:41:54;;;;;;;13.93;5.05;;;;;;;2.37;87.66;98902.09;5023572;28;20030;-82
2023/01/31 07:44:20;;;;;;;23.83;7.53;;;;;;;2.39;87.62;98915.72;5026284;28;20041;-84
2023/01/31 07:46:46;;;;;;;14.15;6.60;;;;;;;2.37;87.92;98912.44;5016151;28;20037;-84
2023/01/31 07:49:11;;;;;;;18.80;6.78;;;;;;;2.46;87.66;98923.81;5010231;28;20036;-84
2023/01/31 07:51:41;;;;;;;14.35;5.82;;;;;;;2.52;87.32;98927.63;5022448;28;20117;-84
2023/01/31 07:54:09;;;;;;;18.80;7.10;;;;;;;2.44;87.09;98927.47;5007426;28;20033;-85
2023/01/31 07:56:35;;;;;;;10.48;6.75;;;;;;;2.51;87.08;98938.94;5005570;28;20045;-84
2023/01/31 07:59:00;;;;;;;12.65;5.18;;;;;;;2.48;86.95;98937.44;5005501;28;20030;-84
2023/01/31 08:04:15;;;;;;;12.55;6.43;;;;;;;2.46;86.75;98941.09;5007759;28;20196;-85
2023/01/31 08:06:43;;;;;;;14.77;6.43;;;;;;;2.52;86.36;98953.53;5016768;28;20049;-84
2023/01/31 08:09:10;;;;;;;12.73;5.90;;;;;;;2.52;86.23;98946.59;5016513;28;20083;-85
2023/01/31 08:11:35;;;;;;;15.27;6.15;;;;;;;2.55;86.71;98929.97;5013942;28;20563;-85
2023/01/31 08:14:01;;;;;;;8.07;5.35;;;;;;;2.52;86.66;98940.56;5023912;28;20109;-84
2023/01/31 08:16:27;;;;;;;16.77;6.03;;;;;;;2.46;86.21;98926.41;5019783;28;20046;-84
2023/01/31 08:18:53;;;;;;;13.25;6.80;;;;;;;2.50;86.13;98943.31;5011331;28;20053;-84
2023/01/31 08:21:19;;;;;;;12.57;5.78;;;;;;;2.50;85.88;98945.06;5009743;28;20076;-84
2023/01/31 08:23:45;;;;;;;10.32;4.25;;;;;;;2.57;85.71;98948.78;5007961;28;20037;-84
2023/01/31 08:26:14;;;;;;;10.43;5.43;;;;;;;2.61;85.57;98950.19;5008201;28;20048;-84
2023/01/31 08:28:40;;;;;;;11.38;5.10;;;;;;;2.64;84.87;98962.91;5012090;28;20056;-85
2023/01/31 08:31:06;;;;;;;14.35;6.95;;;;;;;2.69;84.70;98952.94;5008913;28;20029;-84
2023/01/31 08:33:32;;;;;;;7.90;4.63;;;;;;;2.71;84.61;98955.44;5009311;28;20080;-84
2023/01/31 08:36:18;;;;;;;13.05;6.43;;;;;;;2.66;84.31;98961.00;5007728;28;21666;-85
2023/01/31 08:38:45;;;;;;;16.33;5.40;;;;;;;2.67;84.00;98960.03;5008065;28;20045;-84
2023/01/31 08:41:11;;;;;;;13.38;5.10;;;;;;;2.73;84.27;98956.94;5009551;28;20116;-84
2023/01/31 08:43:37;;;;;;;12.52;7.00;;;;;;;2.74;83.59;98958.56;5010128;28;20054;-84
2023/01/31 08:46:04;;;;;;;12.63;5.80;;;;;;;2.69;83.37;98945.16;5009302;28;20551;-85
2023/01/31 08:48:35;;;;;;;11.48;5.40;;;;;;;2.76;82.79;98948.91;5010294;28;20069;-85
2023/01/31 08:51:02;;;;;;;12.90;6.35;;;;;;;2.77;83.14;98939.38;5009067;28;20683;-84
2023/01/31 08:53:28;;;;;;;9.10;4.55;;;;;;;2.78;83.20;98947.00;4996982;28;20050;-85
2023/01/31 08:56:02;;;;;;;8.32;4.20;;;;;;;2.88;82.94;98939.28;5009745;28;20084;-85
2023/01/31 08:58:31;;;;;;;13.32;6.45;;;;;;;2.84;82.22;98951.66;5007604;28;20061;-84
2023/01/31 09:01:06;;;;;;;12.63;5.28;;;;;;;2.93;82.72;98950.06;5007664;28;20044;-85
2023/01/31 09:03:33;;;;;;;14.75;6.50;;;;;;;2.86;81.65;98949.75;5010544;28;20039;-85
2023/01/31 09:06:00;;;;;;;10.40;5.63;;;;;;;2.95;81.87;98956.75;5009591;28;20037;-85
2023/01/31 09:08:26;;;;;;;15.40;5.93;;;;;;;2.91;81.37;98952.78;5009830;28;20033;-84
2023/01/31 09:10:53;;;;;;;12.20;5.13;;;;;;;2.91;81.28;98955.38;5007247;28;20036;-85
2023/01/31 09:13:19;;;;;;;7.85;4.80;;;;;;;2.89;81.15;98964.25;5010344;28;20033;-85
2023/01/31 09:15:44;;;;;;;10.15;6.15;;;;;;;2.84;80.87;98969.81;5010860;28;20029;-84
2023/01/31 09:18:11;;;;;;;13.75;5.70;;;;;;;2.95;80.99;98954.19;5010346;28;20052;-84
2023/01/31 09:20:37;;;;;;;9.05;4.72;;;;;;;2.97;80.68;98958.41;5008576;28;20045;-85
2023/01/31 09:23:03;;;;;;;9.75;4.78;;;;;;;2.95;80.70;98964.53;5009201;28;20167;-84
2023/01/31 09:25:28;;;;;;;9.68;5.25;;;;;;;3.01;80.29;98958.03;5007541;28;20606;-84
2023/01/31 09:27:54;;;;;;;10.20;5.68;;;;;;;2.89;80.01;98948.69;5009264;28;20184;-84
2023/01/31 09:30:20;;;;;;;12.55;5.97;;;;;;;2.85;80.53;98948.13;5011189;28;20060;-85
2023/01/31 09:32:46;;;;;;;14.07;5.68;;;;;;;3.05;80.88;98941.25;5009579;28;20043;-84
2023/01/31 09:35:12;;;;;;;14.50;5.90;;;;;;;3.14;80.63;98937.06;5009848;28;20095;-84
2023/01/31 09:37:38;;;;;;;12.45;5.43;;;;;;;3.11;80.17;98942.47;5011828;28;20046;-84
2023/01/31 09:40:14;;;;;;;16.77;8.00;;;;;;;3.09;80.20;98939.22;5010278;28;20378;-84
2023/01/31 09:42:45;;;;;;;12.57;6.10;;;;;;;3.09;79.99;98940.03;5012736;28;20500;-84
2023/01/31 09:45:14;;;;;;;11.77;5.95;;;;;;;3.05;80.09;98940.41;5010155;28;20061;-84
2023/01/31 09:47:49;;;;;;;13.90;6.32;;;;;;;3.22;80.35;98950.16;5009511;28;20052;-84
2023/01/31 09:50:29;;;;;;;14.55;5.03;;;;;;;3.30;79.64;98963.31;5008940;28;20077;-85
2023/01/31 09:52:56;;;;;;;11.73;5.82;;;;;;;3.31;79.28;98944.19;5011554;28;20033;-84
2023/01/31 09:55:31;;;;;;;13.77;5.95;;;;;;;3.40;79.10;98963.31;5010157;28;20100;-84
2023/01/31 09:58:29;;;;;;;12.73;5.65;;;;;;;3.39;78.75;98944.34;5008462;28;20033;-85
2023/01/31 10:01:14;;;;;;;12.65;5.93;;;;;;;3.42;78.96;98946.69;5007123;28;20041;-84
2023/01/31 10:04:03;;;;;;;9.90;5.15;;;;;;;3.40;79.21;98942.56;5007201;28;20498;-84
2023/01/31 10:06:48;;;;;;;9.13;4.43;;;;;;;3.42;79.63;98930.31;4991835;28;20068;-84
2023/01/31 10:09:43;;;;;;;12.90;4.63;;;;;;;3.58;79.19;98943.56;5005570;28;20065;-84
2023/01/31 10:12:21;;;;;;;15.45;7.70;;;;;;;3.51;79.01;98937.28;5007312;28;20104;-84
2023/01/31 10:15:00;;;;;;;14.48;6.75;;;;;;;3.36;79.15;98931.66;5006605;28;20052;-85
2023/01/31 10:17:54;;;;;;;16.20;6.53;;;;;;;3.44;79.47;98918.03;5003505;28;20050;-84
2023/01/31 10:20:32;;;;;;;15.95;5.30;;;;;;;3.58;79.52;98909.00;5020251;28;20700;-84
2023/01/31 10:23:03;;;;;;;11.00;5.25;;;;;;;3.64;78.46;98905.88;5014532;28;20425;-84
2023/01/31 10:26:09;;;;;;;;;;;;;;;3.65;78.39;98903.13;5014564;28;20139;-84
2023/01/31 10:28:57;;;;;;;11.40;5.15;;;;;;;3.70;78.59;98907.94;5013832;28;20427;-85
2023/01/31 10:31:43;;;;;;;11.38;5.78;;;;;;;3.76;78.46;98873.66;5026971;28;20033;-84
2023/01/31 10:34:20;;;;;;;11.25;5.82;;;;;;;3.74;77.96;98884.19;5006204;28;20033;-84
2023/01/31 10:37:04;;;;;;;12.38;7.65;;;;;;;3.64;77.17;98898.09;5020266;28;20057;-85
2023/01/31 10:39:53;;;;;;;11.75;4.72;;;;;;;3.75;77.72;98885.00;5005752;28;20041;-84
2023/01/31 10:42:35;;;;;;;15.07;6.78;;;;;;;3.80;77.26;98882.00;5017647;28;20033;-84
2023/01/31 10:45:29;;;;;;;12.75;7.53;;;;;;;3.76;76.03;98877.06;5017517;28;20038;-85
2023/01/31 10:48:20;;;;;;;10.77;5.57;;;;;;;3.74;76.03;98867.78;5028635;28;20034;-84
2023/01/31 10:51:25;;;;;;;14.00;7.57;;;;;;;3.81;75.71;98883.63;5022957;28;20077;-85
2023/01/31 10:54:15;;;;;;;14.98;7.20;;;;;;;3.82;75.59;98867.91;5026403;28;20425;-84
2023/01/31 10:56:44;;;;;;;15.15;6.35;;;;;;;3.95;75.59;98847.69;5014367;28;20033;-84
2023/01/31 10:59:32;;;;;;;14.80;5.70;;;;;;;3.92;75.21;98863.53;5021377;28;20041;-84
2023/01/31 11:02:00;;;;;;;11.77;4.75;;;;;;;3.88;74.33;98864.78;5029510;28;20040;-84
2023/01/31 11:04:41;;;;;;;9.93;4.95;;;;;;;3.99;74.33;98867.22;5020000;28;20042;-83
2023/01/31 11:07:09;;;;;;;11.95;5.75;;;;;;;4.05;74.26;98867.63;5024613;28;20039;-83
2023/01/31 11:09:41;;;;;;;10.30;5.97;;;;;;;4.00;73.80;98884.44;5022241;28;20039;-83
2023/01/31 11:12:08;;;;;;;14.57;4.63;;;;;;;3.95;73.81;98834.69;5014013;28;20038;-84
2023/01/31 11:14:35;;;;;;;9.30;4.05;;;;;;;4.03;73.23;98847.00;5023024;28;20383;-84
2023/01/31 11:17:17;;;;;;;9.85;5.10;;;;;;;4.27;72.99;98833.56;5023417;28;20033;-84
2023/01/31 11:19:50;;;;;;;9.57;4.45;;;;;;;4.47;72.22;98829.91;5021398;28;20140;-84
2023/01/31 11:22:28;;;;;;;12.45;5.22;;;;;;;4.63;71.36;98818.13;5027225;28;20042;-84
2023/01/31 11:24:57;;;;;;;8.40;4.70;;;;;;;4.81;71.48;98813.78;5027111;28;20120;-83
2023/01/31 11:27:42;;;;;;;10.57;3.72;;;;;;;5.08;71.55;98797.31;5016231;28;20176;-83
2023/01/31 11:30:37;;;;;;;10.85;5.88;;;;;;;4.89;70.11;98808.66;5025387;28;20033;-84
2023/01/31 11:33:03;;;;;;;9.95;5.78;;;;;;;4.92;70.96;98803.19;5010473;28;20073;-83
2023/01/31 11:35:33;;;;;;;13.57;4.43;;;;;;;4.81;71.12;98788.59;5022748;28;20610;-84
2023/01/31 11:38:21;;;;;;;12.18;7.32;;;;;;;4.60;71.08;98798.41;5028643;28;20034;-84
2023/01/31 11:40:47;;;;;;;16.52;8.38;;;;;;;4.42;72.23;98789.75;5025141;28;20033;-83
2023/01/31 11:43:15;;;;;;;12.57;6.95;;;;;;;4.48;73.47;98800.38;5004270;28;20041;-84
2023/01/31 11:45:54;;;;;;;16.25;8.00;;;;;;;4.37;73.57;98795.38;5026604;28;20060;-84
2023/01/31 11:48:25;;;;;;;12.77;7.82;;;;;;;4.31;73.89;98782.94;5025186;28;20041;-84
2023/01/31 11:50:51;;;;;;;16.67;5.85;;;;;;;4.29;75.05;98775.31;5026620;28;20112;-84
2023/01/31 11:53:19;;;;;;;13.75;5.13;;;;;;;4.21;75.19;98777.00;5021282;28;20129;-84
2023/01/31 11:55:48;;;;;;;11.02;6.03;;;;;;;3.95;74.95;98793.19;5021634;28;20108;-84
2023/01/31 11:58:39;;;;;;;15.57;6.50;;;;;;;3.88;75.92;98783.50;5025764;28;20034;-83
2023/01/31 12:01:11;;;;;;;13.18;6.75;;;;;;;3.74;76.19;98795.16;5019673;28;20038;-85
2023/01/31 12:03:37;;;;;;;16.05;8.38;;;;;;;3.57;76.50;98806.22;5023055;28;20053;-84